Главная страница
METAR-TAF:

METAR-TAF

Аэропорты :

Вардё, Норвегия

широта: 70-21N, долгота: 031-03E, высота над уровнем моря: 12 м

Текущие метеонаблюдения

Эта сводка был подготовлена 59 минут назад, в 18:50 UTC
Ветер 7 Узел от юго-западный
Температура -4°C
Влажность 93%
Давление 1014 hPa
Видимость 10 км и более
небольшая облачность на высоте 1400 фута
ливни в окрестностях

METAR: ENSS 191850Z 22007KT 9999 VCSH FEW014 M04/M05 Q1014 RMK WIND 500FT 17004KT

Время: 20:49 (19:49 UTC)


TAF: отсутствует

Метеонаблюдения и прогнозы для более 4000 аэропортов (сводки METAR и TAF).

Имеющиеся станции представлены на карте желтыми и красными точками.

Чтобы увидеть название станции, наведите на нее мышь.

Затем щелкните, чтобы увидеть метеонаблюдения и метеопрогнозы.

Управление картой: чтобы увеличить масштаб, щелкните зеленые кнопки с черным крестиком; чтобы уменьшить масштаб, щелкните зеленую кнопку с тире; для просмотра соседних карт щелкайте зеленые стрелки.


METAR-TAF: